sensor_id;sensor_type;location;lat;lon;timestamp;pressure;altitude;pressure_sealevel;temperature;humidity
73551;BME280;61816;53.582;10.096;2023-08-17T00:00:58;54383.06;;;-144.73;100.00
73551;BME280;61816;53.582;10.096;2023-08-17T00:03:23;54417.97;;;-144.73;100.00
73551;BME280;61816;53.582;10.096;2023-08-17T00:05:49;54411.81;;;-144.73;100.00
73551;BME280;61816;53.582;10.096;2023-08-17T00:08:14;54440.53;;;-144.73;100.00
73551;BME280;61816;53.582;10.096;2023-08-17T00:10:40;54391.28;;;-144.73;100.00
73551;BME280;61816;53.582;10.096;2023-08-17T00:13:05;54415.91;;;-144.73;100.00
73551;BME280;61816;53.582;10.096;2023-08-17T00:15:31;54391.28;;;-144.73;100.00
73551;BME280;61816;53.582;10.096;2023-08-17T00:17:57;54383.06;;;-144.73;100.00
73551;BME280;61816;53.582;10.096;2023-08-17T00:20:22;54368.69;;;-144.73;100.00
73551;BME280;61816;53.582;10.096;2023-08-17T00:22:48;54395.38;;;-144.73;100.00
73551;BME280;61816;53.582;10.096;2023-08-17T00:25:13;54399.50;;;-144.73;100.00
73551;BME280;61816;53.582;10.096;2023-08-17T00:27:39;54397.44;;;-144.73;100.00
73551;BME280;61816;53.582;10.096;2023-08-17T00:30:05;54411.81;;;-144.73;100.00
73551;BME280;61816;53.582;10.096;2023-08-17T00:32:30;54329.72;;;-144.73;100.00
73551;BME280;61816;53.582;10.096;2023-08-17T00:34:55;54424.13;;;-144.73;100.00
73551;BME280;61816;53.582;10.096;2023-08-17T00:37:21;54415.91;;;-144.73;100.00
73551;BME280;61816;53.582;10.096;2023-08-17T00:39:46;54378.97;;;-144.73;100.00
73551;BME280;61816;53.582;10.096;2023-08-17T00:42:12;54370.75;;;-144.73;100.00
73551;BME280;61816;53.582;10.096;2023-08-17T00:44:37;54440.53;;;-144.73;100.00
73551;BME280;61816;53.582;10.096;2023-08-17T00:47:03;54376.91;;;-144.73;100.00
73551;BME280;61816;53.582;10.096;2023-08-17T00:49:30;54370.75;;;-144.73;100.00
73551;BME280;61816;53.582;10.096;2023-08-17T00:51:56;54376.91;;;-144.73;100.00
73551;BME280;61816;53.582;10.096;2023-08-17T00:54:24;54395.38;;;-144.73;100.00
73551;BME280;61816;53.582;10.096;2023-08-17T00:56:51;54436.44;;;-144.73;100.00
73551;BME280;61816;53.582;10.096;2023-08-17T00:59:16;54395.38;;;-144.73;100.00
73551;BME280;61816;53.582;10.096;2023-08-17T01:01:42;54411.81;;;-144.73;100.00
73551;BME280;61816;53.582;10.096;2023-08-17T01:04:08;54432.31;;;-144.73;100.00
73551;BME280;61816;53.582;10.096;2023-08-17T01:06:33;54407.69;;;-144.73;100.00
73551;BME280;61816;53.582;10.096;2023-08-17T01:08:58;54368.69;;;-144.73;100.00
73551;BME280;61816;53.582;10.096;2023-08-17T01:16:30;54448.75;;;-144.73;100.00
73551;BME280;61816;53.582;10.096;2023-08-17T01:18:58;54432.31;;;-144.73;100.00
73551;BME280;61816;53.582;10.096;2023-08-17T01:21:32;54395.38;;;-144.73;100.00
73551;BME280;61816;53.582;10.096;2023-08-17T01:24:03;54407.69;;;-144.73;100.00
73551;BME280;61816;53.582;10.096;2023-08-17T01:26:28;54444.66;;;-144.73;100.00
73551;BME280;61816;53.582;10.096;2023-08-17T01:28:57;54415.91;;;-144.73;100.00
73551;BME280;61816;53.582;10.096;2023-08-17T01:31:31;54411.81;;;-144.73;100.00
73551;BME280;61816;53.582;10.096;2023-08-17T01:34:05;54436.44;;;-144.73;100.00
73551;BME280;61816;53.582;10.096;2023-08-17T01:36:40;54420.00;;;-144.73;100.00
73551;BME280;61816;53.582;10.096;2023-08-17T01:39:08;54432.31;;;-144.73;100.00
73551;BME280;61816;53.582;10.096;2023-08-17T01:41:34;54374.84;;;-144.73;100.00
73551;BME280;61816;53.582;10.096;2023-08-17T01:44:02;54383.06;;;-144.73;100.00
73551;BME280;61816;53.582;10.096;2023-08-17T01:46:30;54415.91;;;-144.73;100.00
73551;BME280;61816;53.582;10.096;2023-08-17T01:48:57;54428.22;;;-144.73;100.00
73551;BME280;61816;53.582;10.096;2023-08-17T01:51:23;54395.38;;;-144.73;100.00
73551;BME280;61816;53.582;10.096;2023-08-17T01:53:49;54391.28;;;-144.73;100.00
73551;BME280;61816;53.582;10.096;2023-08-17T01:56:15;54415.91;;;-144.73;100.00
73551;BME280;61816;53.582;10.096;2023-08-17T01:58:40;54407.69;;;-144.73;100.00
73551;BME280;61816;53.582;10.096;2023-08-17T02:01:06;54391.28;;;-144.73;100.00
73551;BME280;61816;53.582;10.096;2023-08-17T02:03:31;54370.75;;;-144.73;100.00
73551;BME280;61816;53.582;10.096;2023-08-17T02:05:57;54395.38;;;-144.73;100.00
73551;BME280;61816;53.582;10.096;2023-08-17T02:08:22;54424.13;;;-144.73;100.00
73551;BME280;61816;53.582;10.096;2023-08-17T02:10:48;54411.81;;;-144.73;100.00
73551;BME280;61816;53.582;10.096;2023-08-17T02:13:14;54415.91;;;-144.73;100.00
73551;BME280;61816;53.582;10.096;2023-08-17T02:15:40;54440.53;;;-144.73;100.00
73551;BME280;61816;53.582;10.096;2023-08-17T02:18:05;54444.66;;;-144.73;100.00
73551;BME280;61816;53.582;10.096;2023-08-17T02:20:31;54424.13;;;-144.73;100.00
73551;BME280;61816;53.582;10.096;2023-08-17T02:22:56;54411.81;;;-144.73;100.00
73551;BME280;61816;53.582;10.096;2023-08-17T02:25:22;54452.84;;;-144.73;100.00
73551;BME280;61816;53.582;10.096;2023-08-17T02:27:47;54436.44;;;-144.73;100.00
73551;BME280;61816;53.582;10.096;2023-08-17T02:30:13;54411.81;;;-144.73;100.00
73551;BME280;61816;53.582;10.096;2023-08-17T02:32:38;54424.13;;;-144.73;100.00
73551;BME280;61816;53.582;10.096;2023-08-17T02:35:04;54391.28;;;-144.73;100.00
73551;BME280;61816;53.582;10.096;2023-08-17T02:37:29;54446.69;;;-144.73;100.00
73551;BME280;61816;53.582;10.096;2023-08-17T02:39:55;54417.97;;;-144.73;100.00
73551;BME280;61816;53.582;10.096;2023-08-17T02:42:20;54387.19;;;-144.73;100.00
73551;BME280;61816;53.582;10.096;2023-08-17T02:44:45;54395.38;;;-144.73;100.00
73551;BME280;61816;53.582;10.096;2023-08-17T02:47:11;54395.38;;;-144.73;100.00
73551;BME280;61816;53.582;10.096;2023-08-17T02:49:36;54407.69;;;-144.73;100.00
73551;BME280;61816;53.582;10.096;2023-08-17T02:52:01;54436.44;;;-144.73;100.00
73551;BME280;61816;53.582;10.096;2023-08-17T02:54:27;54428.22;;;-144.73;100.00
73551;BME280;61816;53.582;10.096;2023-08-17T02:56:52;54428.22;;;-144.73;100.00
73551;BME280;61816;53.582;10.096;2023-08-17T02:59:18;54378.97;;;-144.73;100.00
73551;BME280;61816;53.582;10.096;2023-08-17T03:01:45;54452.84;;;-144.73;100.00
73551;BME280;61816;53.582;10.096;2023-08-17T03:04:10;54411.81;;;-144.73;100.00
73551;BME280;61816;53.582;10.096;2023-08-17T03:06:36;54393.34;;;-144.73;100.00
73551;BME280;61816;53.582;10.096;2023-08-17T03:09:01;54415.91;;;-144.73;100.00
73551;BME280;61816;53.582;10.096;2023-08-17T03:11:27;54399.50;;;-144.73;100.00
73551;BME280;61816;53.582;10.096;2023-08-17T03:13:52;54430.28;;;-144.73;100.00
73551;BME280;61816;53.582;10.096;2023-08-17T03:16:20;54424.13;;;-144.73;100.00
73551;BME280;61816;53.582;10.096;2023-08-17T03:18:46;54411.81;;;-144.73;100.00
73551;BME280;61816;53.582;10.096;2023-08-17T03:21:13;54428.22;;;-144.73;100.00
73551;BME280;61816;53.582;10.096;2023-08-17T03:23:38;54424.13;;;-144.73;100.00
73551;BME280;61816;53.582;10.096;2023-08-17T03:26:03;54424.13;;;-144.73;100.00
73551;BME280;61816;53.582;10.096;2023-08-17T03:28:29;54385.13;;;-144.73;100.00
73551;BME280;61816;53.582;10.096;2023-08-17T03:30:55;54424.13;;;-144.73;100.00
73551;BME280;61816;53.582;10.096;2023-08-17T03:33:21;54420.00;;;-144.73;100.00
73551;BME280;61816;53.582;10.096;2023-08-17T03:35:46;54436.44;;;-144.73;100.00
73551;BME280;61816;53.582;10.096;2023-08-17T03:38:12;54399.50;;;-144.73;100.00
73551;BME280;61816;53.582;10.096;2023-08-17T03:40:37;54432.31;;;-144.73;100.00
73551;BME280;61816;53.582;10.096;2023-08-17T03:43:03;54383.06;;;-144.73;100.00
73551;BME280;61816;53.582;10.096;2023-08-17T03:45:29;54391.28;;;-144.73;100.00
73551;BME280;61816;53.582;10.096;2023-08-17T03:47:54;54440.53;;;-144.73;100.00
73551;BME280;61816;53.582;10.096;2023-08-17T03:50:20;54424.13;;;-144.73;100.00
73551;BME280;61816;53.582;10.096;2023-08-17T03:52:45;54428.22;;;-144.73;100.00
73551;BME280;61816;53.582;10.096;2023-08-17T03:55:10;54444.66;;;-144.73;100.00
73551;BME280;61816;53.582;10.096;2023-08-17T03:57:36;54391.28;;;-144.73;100.00
73551;BME280;61816;53.582;10.096;2023-08-17T04:00:01;54424.13;;;-144.73;100.00
73551;BME280;61816;53.582;10.096;2023-08-17T04:02:26;54411.81;;;-144.73;100.00
73551;BME280;61816;53.582;10.096;2023-08-17T04:04:52;54428.22;;;-144.73;100.00
73551;BME280;61816;53.582;10.096;2023-08-17T04:07:23;54395.38;;;-144.73;100.00
73551;BME280;61816;53.582;10.096;2023-08-17T04:09:49;54387.19;;;-144.73;100.00
73551;BME280;61816;53.582;10.096;2023-08-17T04:12:14;54420.00;;;-144.73;100.00
73551;BME280;61816;53.582;10.096;2023-08-17T04:14:39;54407.69;;;-144.73;100.00
73551;BME280;61816;53.582;10.096;2023-08-17T04:17:05;54407.69;;;-144.73;100.00
73551;BME280;61816;53.582;10.096;2023-08-17T04:19:30;54420.00;;;-144.73;100.00
73551;BME280;61816;53.582;10.096;2023-08-17T04:21:55;54411.81;;;-144.73;100.00
73551;BME280;61816;53.582;10.096;2023-08-17T04:24:21;54397.44;;;-144.73;100.00
73551;BME280;61816;53.582;10.096;2023-08-17T04:26:46;54407.69;;;-144.73;100.00
73551;BME280;61816;53.582;10.096;2023-08-17T04:29:11;54399.50;;;-144.73;100.00
73551;BME280;61816;53.582;10.096;2023-08-17T04:31:37;54411.81;;;-144.73;100.00
73551;BME280;61816;53.582;10.096;2023-08-17T04:34:02;54407.69;;;-144.73;100.00
73551;BME280;61816;53.582;10.096;2023-08-17T04:36:28;54454.91;;;-144.73;100.00
73551;BME280;61816;53.582;10.096;2023-08-17T04:38:53;54454.91;;;-144.73;100.00
73551;BME280;61816;53.582;10.096;2023-08-17T04:41:18;54456.97;;;-144.73;100.00
73551;BME280;61816;53.582;10.096;2023-08-17T04:43:44;54385.13;;;-144.73;100.00
73551;BME280;61816;53.582;10.096;2023-08-17T04:46:11;54432.31;;;-144.73;100.00
73551;BME280;61816;53.582;10.096;2023-08-17T04:48:37;54407.69;;;-144.73;100.00
73551;BME280;61816;53.582;10.096;2023-08-17T04:51:02;54407.69;;;-144.73;100.00
73551;BME280;61816;53.582;10.096;2023-08-17T04:53:28;54440.53;;;-144.73;100.00
73551;BME280;61816;53.582;10.096;2023-08-17T04:55:53;54461.06;;;-144.73;100.00
73551;BME280;61816;53.582;10.096;2023-08-17T04:58:18;54467.22;;;-144.73;100.00
73551;BME280;61816;53.582;10.096;2023-08-17T05:00:44;54448.75;;;-144.73;100.00
73551;BME280;61816;53.582;10.096;2023-08-17T05:03:10;54436.44;;;-144.73;100.00
73551;BME280;61816;53.582;10.096;2023-08-17T05:05:35;54432.31;;;-144.73;100.00
73551;BME280;61816;53.582;10.096;2023-08-17T05:08:02;54415.91;;;-144.73;100.00
73551;BME280;61816;53.582;10.096;2023-08-17T05:10:28;54399.50;;;-144.73;100.00
73551;BME280;61816;53.582;10.096;2023-08-17T05:12:54;54411.81;;;-144.73;100.00
73551;BME280;61816;53.582;10.096;2023-08-17T05:15:20;54432.31;;;-144.73;100.00
73551;BME280;61816;53.582;10.096;2023-08-17T05:17:45;54448.75;;;-144.73;100.00
73551;BME280;61816;53.582;10.096;2023-08-17T05:20:10;54389.22;;;-144.73;100.00
73551;BME280;61816;53.582;10.096;2023-08-17T05:22:37;54407.69;;;-144.73;100.00
73551;BME280;61816;53.582;10.096;2023-08-17T05:25:03;54440.53;;;-144.73;100.00
73551;BME280;61816;53.582;10.096;2023-08-17T05:27:29;54424.13;;;-144.73;100.00
73551;BME280;61816;53.582;10.096;2023-08-17T05:29:54;54446.69;;;-144.73;100.00
73551;BME280;61816;53.582;10.096;2023-08-17T05:32:20;54436.44;;;-144.73;100.00
73551;BME280;61816;53.582;10.096;2023-08-17T05:34:46;54407.69;;;-144.73;100.00
73551;BME280;61816;53.582;10.096;2023-08-17T05:37:12;54422.06;;;-144.73;100.00
73551;BME280;61816;53.582;10.096;2023-08-17T05:39:37;54432.31;;;-144.73;100.00
73551;BME280;61816;53.582;10.096;2023-08-17T05:42:04;54407.69;;;-144.73;100.00
73551;BME280;61816;53.582;10.096;2023-08-17T05:44:30;54434.38;;;-144.73;100.00
73551;BME280;61816;53.582;10.096;2023-08-17T05:46:55;54428.22;;;-144.73;100.00
73551;BME280;61816;53.582;10.096;2023-08-17T05:49:20;54391.28;;;-144.73;100.00
73551;BME280;61816;53.582;10.096;2023-08-17T05:51:46;54452.84;;;-144.73;100.00
73551;BME280;61816;53.582;10.096;2023-08-17T05:54:12;54420.00;;;-144.73;100.00
73551;BME280;61816;53.582;10.096;2023-08-17T05:56:37;54434.38;;;-144.73;100.00
73551;BME280;61816;53.582;10.096;2023-08-17T05:59:03;54434.38;;;-144.73;100.00
73551;BME280;61816;53.582;10.096;2023-08-17T06:01:28;54436.44;;;-144.73;100.00
73551;BME280;61816;53.582;10.096;2023-08-17T06:03:53;54428.22;;;-144.73;100.00
73551;BME280;61816;53.582;10.096;2023-08-17T06:06:19;54456.97;;;-144.73;100.00
73551;BME280;61816;53.582;10.096;2023-08-17T06:08:44;54444.66;;;-144.73;100.00
73551;BME280;61816;53.582;10.096;2023-08-17T06:11:10;54422.06;;;-144.73;100.00
73551;BME280;61816;53.582;10.096;2023-08-17T06:13:35;54452.84;;;-144.73;100.00
73551;BME280;61816;53.582;10.096;2023-08-17T06:16:01;54436.44;;;-144.73;100.00
73551;BME280;61816;53.582;10.096;2023-08-17T06:18:26;54461.06;;;-144.73;100.00
73551;BME280;61816;53.582;10.096;2023-08-17T06:20:51;54424.13;;;-144.73;100.00
73551;BME280;61816;53.582;10.096;2023-08-17T06:23:19;54436.44;;;-144.73;100.00
73551;BME280;61816;53.582;10.096;2023-08-17T06:25:45;54428.22;;;-144.73;100.00
73551;BME280;61816;53.582;10.096;2023-08-17T06:28:10;54444.66;;;-144.73;100.00
73551;BME280;61816;53.582;10.096;2023-08-17T06:30:35;54424.13;;;-144.73;100.00
73551;BME280;61816;53.582;10.096;2023-08-17T06:33:01;54481.59;;;-144.73;100.00
73551;BME280;61816;53.582;10.096;2023-08-17T06:35:26;54448.75;;;-144.73;100.00
73551;BME280;61816;53.582;10.096;2023-08-17T06:37:51;54456.97;;;-144.73;100.00
73551;BME280;61816;53.582;10.096;2023-08-17T06:40:20;54448.75;;;-144.73;100.00
73551;BME280;61816;53.582;10.096;2023-08-17T06:42:46;54432.31;;;-144.73;100.00
73551;BME280;61816;53.582;10.096;2023-08-17T06:45:11;54415.91;;;-144.73;100.00
73551;BME280;61816;53.582;10.096;2023-08-17T06:47:37;54463.13;;;-144.73;100.00
73551;BME280;61816;53.582;10.096;2023-08-17T06:50:02;54436.44;;;-144.73;100.00
73551;BME280;61816;53.582;10.096;2023-08-17T06:52:28;54479.53;;;-144.73;100.00
73551;BME280;61816;53.582;10.096;2023-08-17T06:54:53;54465.16;;;-144.73;100.00
73551;BME280;61816;53.582;10.096;2023-08-17T06:57:19;54452.84;;;-144.73;100.00
73551;BME280;61816;53.582;10.096;2023-08-17T06:59:47;54452.84;;;-144.73;100.00
73551;BME280;61816;53.582;10.096;2023-08-17T07:02:12;54417.97;;;-144.73;100.00
73551;BME280;61816;53.582;10.096;2023-08-17T07:04:37;54442.59;;;-144.73;100.00
73551;BME280;61816;53.582;10.096;2023-08-17T07:07:03;54459.00;;;-144.73;100.00
73551;BME280;61816;53.582;10.096;2023-08-17T07:09:28;54452.84;;;-144.73;100.00
73551;BME280;61816;53.582;10.096;2023-08-17T07:11:54;54448.75;;;-144.73;100.00
73551;BME280;61816;53.582;10.096;2023-08-17T07:14:19;54444.66;;;-144.73;100.00
73551;BME280;61816;53.582;10.096;2023-08-17T07:16:44;54432.31;;;-144.73;100.00
73551;BME280;61816;53.582;10.096;2023-08-17T07:19:10;54407.69;;;-144.73;100.00
73551;BME280;61816;53.582;10.096;2023-08-17T07:21:36;54477.47;;;-144.73;100.00
73551;BME280;61816;53.582;10.096;2023-08-17T07:24:14;54436.44;;;-144.73;100.00
73551;BME280;61816;53.582;10.096;2023-08-17T07:26:40;54448.75;;;-144.73;100.00
73551;BME280;61816;53.582;10.096;2023-08-17T07:29:05;54461.06;;;-144.73;100.00
73551;BME280;61816;53.582;10.096;2023-08-17T07:31:31;54456.97;;;-144.73;100.00
73551;BME280;61816;53.582;10.096;2023-08-17T07:33:59;54436.44;;;-144.73;100.00
73551;BME280;61816;53.582;10.096;2023-08-17T07:36:24;54440.53;;;-144.73;100.00
73551;BME280;61816;53.582;10.096;2023-08-17T07:38:50;54426.16;;;-144.73;100.00
73551;BME280;61816;53.582;10.096;2023-08-17T07:41:15;54452.84;;;-144.73;100.00
73551;BME280;61816;53.582;10.096;2023-08-17T07:43:40;54471.31;;;-144.73;100.00
73551;BME280;61816;53.582;10.096;2023-08-17T07:46:06;54422.06;;;-144.73;100.00
73551;BME280;61816;53.582;10.096;2023-08-17T07:48:31;54463.13;;;-144.73;100.00
73551;BME280;61816;53.582;10.096;2023-08-17T07:50:58;54448.75;;;-144.73;100.00
73551;BME280;61816;53.582;10.096;2023-08-17T07:53:24;54456.97;;;-144.73;100.00
73551;BME280;61816;53.582;10.096;2023-08-17T07:55:49;54420.00;;;-144.73;100.00
73551;BME280;61816;53.582;10.096;2023-08-17T07:58:15;54481.59;;;-144.73;100.00
73551;BME280;61816;53.582;10.096;2023-08-17T08:00:40;54407.69;;;-144.73;100.00
73551;BME280;61816;53.582;10.096;2023-08-17T08:03:05;54436.44;;;-144.73;100.00
73551;BME280;61816;53.582;10.096;2023-08-17T08:05:31;54442.59;;;-144.73;100.00
73551;BME280;61816;53.582;10.096;2023-08-17T08:07:56;54444.66;;;-144.73;100.00
73551;BME280;61816;53.582;10.096;2023-08-17T08:10:22;54444.66;;;-144.73;100.00
73551;BME280;61816;53.582;10.096;2023-08-17T08:12:47;54465.16;;;-144.73;100.00
73551;BME280;61816;53.582;10.096;2023-08-17T08:15:12;54456.97;;;-144.73;100.00
73551;BME280;61816;53.582;10.096;2023-08-17T08:17:38;54493.91;;;-144.73;100.00
73551;BME280;61816;53.582;10.096;2023-08-17T08:20:04;54448.75;;;-144.73;100.00
73551;BME280;61816;53.582;10.096;2023-08-17T08:22:29;54491.84;;;-144.73;100.00
73551;BME280;61816;53.582;10.096;2023-08-17T08:24:55;54477.47;;;-144.73;100.00
73551;BME280;61816;53.582;10.096;2023-08-17T08:27:20;54514.44;;;-144.73;100.00
73551;BME280;61816;53.582;10.096;2023-08-17T08:29:46;54452.84;;;-144.73;100.00
73551;BME280;61816;53.582;10.096;2023-08-17T08:32:11;54473.38;;;-144.73;100.00
73551;BME280;61816;53.582;10.096;2023-08-17T08:34:37;54485.69;;;-144.73;100.00
73551;BME280;61816;53.582;10.096;2023-08-17T08:37:02;54500.06;;;-144.73;100.00
73551;BME280;61816;53.582;10.096;2023-08-17T08:39:28;54448.75;;;-144.73;100.00
73551;BME280;61816;53.582;10.096;2023-08-17T08:41:53;54461.06;;;-144.73;100.00
73551;BME280;61816;53.582;10.096;2023-08-17T08:44:19;54477.47;;;-144.73;100.00
73551;BME280;61816;53.582;10.096;2023-08-17T08:46:45;54452.84;;;-144.73;100.00
73551;BME280;61816;53.582;10.096;2023-08-17T08:49:12;54491.84;;;-144.73;100.00
73551;BME280;61816;53.582;10.096;2023-08-17T08:51:46;54454.91;;;-144.73;100.00
73551;BME280;61816;53.582;10.096;2023-08-17T08:54:15;54487.75;;;-144.73;100.00
73551;BME280;61816;53.582;10.096;2023-08-17T08:56:44;54456.97;;;-144.73;100.00
73551;BME280;61816;53.582;10.096;2023-08-17T08:59:11;54456.97;;;-144.73;100.00
73551;BME280;61816;53.582;10.096;2023-08-17T09:01:38;54469.28;;;-144.73;100.00
73551;BME280;61816;53.582;10.096;2023-08-17T09:04:04;54461.06;;;-144.73;100.00
73551;BME280;61816;53.582;10.096;2023-08-17T09:06:30;54456.97;;;-144.73;100.00
73551;BME280;61816;53.582;10.096;2023-08-17T09:09:01;54436.44;;;-144.73;100.00
73551;BME280;61816;53.582;10.096;2023-08-17T09:11:26;54465.16;;;-144.73;100.00
73551;BME280;61816;53.582;10.096;2023-08-17T09:13:53;54424.13;;;-144.73;100.00
73551;BME280;61816;53.582;10.096;2023-08-17T09:16:19;54477.47;;;-144.73;100.00
73551;BME280;61816;53.582;10.096;2023-08-17T09:18:44;54493.91;;;-144.73;100.00
73551;BME280;61816;53.582;10.096;2023-08-17T09:21:20;54456.97;;;-144.73;100.00
73551;BME280;61816;53.582;10.096;2023-08-17T09:23:51;54475.44;;;-144.73;100.00
73551;BME280;61816;53.582;10.096;2023-08-17T09:26:19;54428.22;;;-144.73;100.00
73551;BME280;61816;53.582;10.096;2023-08-17T09:28:44;54444.66;;;-144.73;100.00
73551;BME280;61816;53.582;10.096;2023-08-17T09:31:11;54448.75;;;-144.73;100.00
73551;BME280;61816;53.582;10.096;2023-08-17T09:33:37;54432.31;;;-144.73;100.00
73551;BME280;61816;53.582;10.096;2023-08-17T09:36:04;54465.16;;;-144.73;100.00
73551;BME280;61816;53.582;10.096;2023-08-17T09:38:29;54469.28;;;-144.73;100.00
73551;BME280;61816;53.582;10.096;2023-08-17T09:40:57;54448.75;;;-144.73;100.00
73551;BME280;61816;53.582;10.096;2023-08-17T09:43:23;54469.28;;;-144.73;100.00
73551;BME280;61816;53.582;10.096;2023-08-17T09:45:49;54481.59;;;-144.73;100.00
73551;BME280;61816;53.582;10.096;2023-08-17T09:48:16;54461.06;;;-144.73;100.00
73551;BME280;61816;53.582;10.096;2023-08-17T09:50:46;54473.38;;;-144.73;100.00
73551;BME280;61816;53.582;10.096;2023-08-17T09:53:13;54489.81;;;-144.73;100.00
73551;BME280;61816;53.582;10.096;2023-08-17T09:55:41;54415.91;;;-144.73;100.00
73551;BME280;61816;53.582;10.096;2023-08-17T09:58:07;54452.84;;;-144.73;100.00
73551;BME280;61816;53.582;10.096;2023-08-17T10:00:34;54473.38;;;-144.73;100.00
73551;BME280;61816;53.582;10.096;2023-08-17T10:03:02;54489.81;;;-144.73;100.00
73551;BME280;61816;53.582;10.096;2023-08-17T10:05:30;54448.75;;;-144.73;100.00
73551;BME280;61816;53.582;10.096;2023-08-17T10:07:59;54485.69;;;-144.73;100.00
73551;BME280;61816;53.582;10.096;2023-08-17T10:10:26;54450.81;;;-144.73;100.00
73551;BME280;61816;53.582;10.096;2023-08-17T10:15:41;54498.00;;;-144.73;100.00
73551;BME280;61816;53.582;10.096;2023-08-17T10:18:31;54489.81;;;-144.73;100.00
73551;BME280;61816;53.582;10.096;2023-08-17T10:21:01;54469.28;;;-144.73;100.00
73551;BME280;61816;53.582;10.096;2023-08-17T10:23:27;54456.97;;;-144.73;100.00
73551;BME280;61816;53.582;10.096;2023-08-17T10:25:53;54469.28;;;-144.73;100.00
73551;BME280;61816;53.582;10.096;2023-08-17T10:28:20;54432.31;;;-144.73;100.00
73551;BME280;61816;53.582;10.096;2023-08-17T10:30:47;54498.00;;;-144.73;100.00
73551;BME280;61816;53.582;10.096;2023-08-17T10:33:14;54452.84;;;-144.73;100.00
73551;BME280;61816;53.582;10.096;2023-08-17T10:35:41;54481.59;;;-144.73;100.00
73551;BME280;61816;53.582;10.096;2023-08-17T10:38:07;54461.06;;;-144.73;100.00
73551;BME280;61816;53.582;10.096;2023-08-17T10:40:38;54473.38;;;-144.73;100.00
73551;BME280;61816;53.582;10.096;2023-08-17T10:43:04;54452.84;;;-144.73;100.00
73551;BME280;61816;53.582;10.096;2023-08-17T10:45:36;54465.16;;;-144.73;100.00
73551;BME280;61816;53.582;10.096;2023-08-17T10:50:33;54473.38;;;-144.73;100.00
73551;BME280;61816;53.582;10.096;2023-08-17T10:53:04;54495.97;;;-144.73;100.00
73551;BME280;61816;53.582;10.096;2023-08-17T10:55:37;54461.06;;;-144.73;100.00
73551;BME280;61816;53.582;10.096;2023-08-17T10:58:04;54498.00;;;-144.73;100.00
73551;BME280;61816;53.582;10.096;2023-08-17T11:00:37;54477.47;;;-144.73;100.00
73551;BME280;61816;53.582;10.096;2023-08-17T11:03:14;54436.44;;;-144.73;100.00
73551;BME280;61816;53.582;10.096;2023-08-17T11:05:43;54485.69;;;-144.73;100.00
73551;BME280;61816;53.582;10.096;2023-08-17T11:08:12;54477.47;;;-144.73;100.00
73551;BME280;61816;53.582;10.096;2023-08-17T11:10:57;54512.38;;;-144.73;100.00
73551;BME280;61816;53.582;10.096;2023-08-17T11:13:24;54485.69;;;-144.73;100.00
73551;BME280;61816;53.582;10.096;2023-08-17T11:15:49;54481.59;;;-144.73;100.00
73551;BME280;61816;53.582;10.096;2023-08-17T11:18:15;54473.38;;;-144.73;100.00
73551;BME280;61816;53.582;10.096;2023-08-17T11:20:41;54495.97;;;-144.73;100.00
73551;BME280;61816;53.582;10.096;2023-08-17T11:23:08;54510.31;;;-144.73;100.00
73551;BME280;61816;53.582;10.096;2023-08-17T11:25:34;54498.00;;;-144.73;100.00
73551;BME280;61816;53.582;10.096;2023-08-17T11:28:00;54477.47;;;-144.73;100.00
73551;BME280;61816;53.582;10.096;2023-08-17T11:30:27;54498.00;;;-144.73;100.00
73551;BME280;61816;53.582;10.096;2023-08-17T11:32:54;54526.75;;;-144.73;100.00
73551;BME280;61816;53.582;10.096;2023-08-17T11:35:20;54481.59;;;-144.73;100.00
73551;BME280;61816;53.582;10.096;2023-08-17T11:37:47;54510.31;;;-144.73;100.00
73551;BME280;61816;53.582;10.096;2023-08-17T11:40:14;54522.63;;;-144.73;100.00
73551;BME280;61816;53.582;10.096;2023-08-17T11:42:40;54502.13;;;-144.73;100.00
73551;BME280;61816;53.582;10.096;2023-08-17T11:45:06;54491.84;;;-144.73;100.00
73551;BME280;61816;53.582;10.096;2023-08-17T11:47:44;54444.66;;;-144.73;100.00
73551;BME280;61816;53.582;10.096;2023-08-17T11:50:11;54465.16;;;-144.73;100.00
73551;BME280;61816;53.582;10.096;2023-08-17T11:52:37;54485.69;;;-144.73;100.00
73551;BME280;61816;53.582;10.096;2023-08-17T11:55:06;54502.13;;;-144.73;100.00
73551;BME280;61816;53.582;10.096;2023-08-17T11:57:32;54456.97;;;-144.73;100.00
73551;BME280;61816;53.582;10.096;2023-08-17T11:59:59;54491.84;;;-144.73;100.00
73551;BME280;61816;53.582;10.096;2023-08-17T12:02:26;54477.47;;;-144.73;100.00
73551;BME280;61816;53.582;10.096;2023-08-17T12:04:53;54452.84;;;-144.73;100.00
73551;BME280;61816;53.582;10.096;2023-08-17T12:07:19;54502.13;;;-144.73;100.00
73551;BME280;61816;53.582;10.096;2023-08-17T12:09:45;54498.00;;;-144.73;100.00
73551;BME280;61816;53.582;10.096;2023-08-17T12:12:11;54477.47;;;-144.73;100.00
73551;BME280;61816;53.582;10.096;2023-08-17T12:14:41;54498.00;;;-144.73;100.00
73551;BME280;61816;53.582;10.096;2023-08-17T12:17:06;54498.00;;;-144.73;100.00
73551;BME280;61816;53.582;10.096;2023-08-17T12:19:32;54452.84;;;-144.73;100.00
73551;BME280;61816;53.582;10.096;2023-08-17T12:21:57;54502.13;;;-144.73;100.00
73551;BME280;61816;53.582;10.096;2023-08-17T12:24:26;54512.38;;;-144.73;100.00
73551;BME280;61816;53.582;10.096;2023-08-17T12:26:52;54456.97;;;-144.73;100.00